Time;durP1;ratioP1;P1;durP2;ratioP2;P2;SDS_P1;SDS_P2;PMS_P1;PMS_P2;Temp;Humidity;BMP_temperature;BMP_pressure;BME280_temperature;BME280_humidity;BME280_pressure;Samples;Min_cycle;Max_cycle;Signal;HPM_P1;HPM_P2
2022/01/05 00:00:56;;;;;;;0.20;0.20;;;;;;;;;;4988643;28;20030;-72
2022/01/05 00:03:22;;;;;;;0.00;0.00;;;;;;;;;;4995605;28;20065;-72
2022/01/05 00:05:48;;;;;;;0.00;0.00;;;;;;;;;;4993566;28;20049;-73
2022/01/05 00:08:14;;;;;;;0.03;0.03;;;;;;;;;;4986082;28;20182;-72
2022/01/05 00:10:40;;;;;;;0.10;0.10;;;;;;;;;;4985940;28;20195;-72
2022/01/05 00:13:06;;;;;;;0.10;0.10;;;;;;;;;;4990575;28;20027;-73
2022/01/05 00:15:32;;;;;;;0.10;0.10;;;;;;;;;;4985486;28;20026;-73
2022/01/05 00:17:58;;;;;;;0.10;0.10;;;;;;;;;;4996341;28;20035;-73
2022/01/05 00:20:24;;;;;;;0.40;0.40;;;;;;;;;;4983764;28;20109;-73
2022/01/05 00:22:51;;;;;;;0.00;0.00;;;;;;;;;;4989271;28;20030;-73
2022/01/05 00:25:17;;;;;;;0.20;0.20;;;;;;;;;;4983075;28;20033;-73
2022/01/05 00:27:42;;;;;;;0.00;0.00;;;;;;;;;;4996718;28;20096;-73
2022/01/05 00:30:09;;;;;;;0.25;0.25;;;;;;;;;;4984065;28;20031;-72
2022/01/05 00:32:35;;;;;;;3.53;0.68;;;;;;;;;;4999979;28;20065;-73
2022/01/05 00:35:01;;;;;;;0.30;0.30;;;;;;;;;;5003689;28;20061;-72
2022/01/05 00:37:27;;;;;;;0.20;0.20;;;;;;;;;;5010587;28;20183;-73
2022/01/05 00:39:53;;;;;;;0.10;0.10;;;;;;;;;;5001516;28;20026;-72
2022/01/05 00:42:19;;;;;;;0.00;0.00;;;;;;;;;;4988454;28;20385;-72
2022/01/05 00:44:44;;;;;;;0.08;0.08;;;;;;;;;;5000049;28;20104;-73
2022/01/05 00:47:10;;;;;;;0.10;0.10;;;;;;;;;;4984745;28;20396;-72
2022/01/05 00:49:36;;;;;;;0.20;0.20;;;;;;;;;;5001474;28;20092;-72
2022/01/05 00:52:03;;;;;;;0.43;0.43;;;;;;;;;;4987072;28;20396;-73
2022/01/05 00:54:29;;;;;;;0.00;0.00;;;;;;;;;;4979923;28;20026;-73
2022/01/05 00:56:55;;;;;;;0.00;0.00;;;;;;;;;;4994420;28;20807;-73
2022/01/05 00:59:20;;;;;;;0.00;0.00;;;;;;;;;;4995364;28;20080;-73
2022/01/05 01:01:46;;;;;;;0.10;0.10;;;;;;;;;;4996368;28;20049;-73
2022/01/05 01:04:12;;;;;;;0.00;0.00;;;;;;;;;;4981209;28;20519;-72
2022/01/05 01:06:38;;;;;;;0.52;0.45;;;;;;;;;;4982723;28;20033;-73
2022/01/05 01:09:04;;;;;;;0.65;0.65;;;;;;;;;;5003490;28;20034;-73
2022/01/05 01:11:30;;;;;;;0.10;0.10;;;;;;;;;;4983400;28;20032;-73
2022/01/05 01:13:56;;;;;;;0.10;0.10;;;;;;;;;;4994523;28;20030;-72
2022/01/05 01:16:22;;;;;;;0.00;0.00;;;;;;;;;;5004098;28;20464;-72
2022/01/05 01:18:48;;;;;;;0.10;0.10;;;;;;;;;;5001754;28;20070;-73
2022/01/05 01:21:14;;;;;;;0.30;0.30;;;;;;;;;;5005027;28;20041;-72
2022/01/05 01:23:52;;;;;;;0.22;0.22;;;;;;;;;;4998858;28;20770;-72
2022/01/05 01:26:18;;;;;;;0.00;0.00;;;;;;;;;;4992463;28;20053;-73
2022/01/05 01:28:44;;;;;;;0.10;0.10;;;;;;;;;;4995625;28;20480;-72
2022/01/05 01:31:10;;;;;;;0.10;0.10;;;;;;;;;;4981818;28;20240;-73
2022/01/05 01:33:36;;;;;;;0.10;0.10;;;;;;;;;;5002994;28;20084;-73
2022/01/05 01:36:02;;;;;;;0.00;0.00;;;;;;;;;;4986730;28;20030;-73
2022/01/05 01:38:28;;;;;;;0.10;0.10;;;;;;;;;;4989919;28;20057;-73
2022/01/05 01:40:54;;;;;;;0.28;0.28;;;;;;;;;;4983323;28;20034;-73
2022/01/05 01:43:20;;;;;;;0.30;0.20;;;;;;;;;;5006195;28;20026;-73
2022/01/05 01:45:46;;;;;;;0.00;0.00;;;;;;;;;;4991124;28;20054;-73
2022/01/05 01:48:12;;;;;;;0.10;0.10;;;;;;;;;;4986217;28;20057;-72
2022/01/05 01:50:38;;;;;;;0.10;0.10;;;;;;;;;;4991475;28;20042;-73
2022/01/05 01:53:04;;;;;;;0.00;0.00;;;;;;;;;;4984514;28;20156;-73
2022/01/05 01:55:30;;;;;;;0.00;0.00;;;;;;;;;;5008353;28;20029;-73
2022/01/05 01:57:56;;;;;;;0.85;0.85;;;;;;;;;;4975369;28;20095;-72
2022/01/05 02:00:22;;;;;;;2.83;0.85;;;;;;;;;;4984576;28;20538;-72
2022/01/05 02:02:48;;;;;;;0.10;0.10;;;;;;;;;;4990325;28;20496;-73
2022/01/05 02:05:14;;;;;;;0.00;0.00;;;;;;;;;;4987557;28;20033;-72
2022/01/05 02:07:40;;;;;;;0.00;0.00;;;;;;;;;;4984738;28;20134;-72
2022/01/05 02:10:08;;;;;;;0.10;0.10;;;;;;;;;;5008275;28;20029;-73
2022/01/05 02:12:34;;;;;;;0.00;0.00;;;;;;;;;;4994207;28;20033;-72
2022/01/05 02:15:00;;;;;;;0.00;0.00;;;;;;;;;;4990883;28;20026;-72
2022/01/05 02:17:48;;;;;;;0.00;0.00;;;;;;;;;;4999203;28;20032;-73
2022/01/05 02:20:16;;;;;;;0.10;0.10;;;;;;;;;;5008114;28;20025;-72
2022/01/05 02:22:42;;;;;;;0.05;0.05;;;;;;;;;;4995027;28;20120;-72
2022/01/05 02:25:08;;;;;;;0.00;0.00;;;;;;;;;;5001609;28;20122;-73
2022/01/05 02:27:34;;;;;;;0.25;0.15;;;;;;;;;;4987737;28;20096;-73
2022/01/05 02:30:00;;;;;;;0.00;0.00;;;;;;;;;;4996252;28;20035;-74
2022/01/05 02:32:26;;;;;;;0.00;0.00;;;;;;;;;;4994734;28;20026;-73
2022/01/05 02:34:52;;;;;;;1.70;1.20;;;;;;;;;;4977265;28;20030;-73
2022/01/05 02:37:18;;;;;;;0.00;0.00;;;;;;;;;;5008352;28;20463;-73
2022/01/05 02:39:43;;;;;;;0.35;0.25;;;;;;;;;;4981050;28;20031;-73
2022/01/05 02:42:09;;;;;;;1.80;1.17;;;;;;;;;;4983823;28;20034;-73
2022/01/05 02:44:35;;;;;;;0.52;0.52;;;;;;;;;;4990301;28;20046;-73
2022/01/05 02:47:01;;;;;;;0.00;0.00;;;;;;;;;;4999921;28;20105;-73
2022/01/05 02:49:27;;;;;;;0.00;0.00;;;;;;;;;;4988955;28;20217;-73
2022/01/05 02:51:53;;;;;;;0.03;0.03;;;;;;;;;;4995928;28;20052;-73
2022/01/05 02:54:19;;;;;;;0.00;0.00;;;;;;;;;;5005075;28;20029;-73
2022/01/05 02:56:45;;;;;;;0.03;0.03;;;;;;;;;;5004822;28;20029;-73
2022/01/05 02:59:10;;;;;;;1.23;0.80;;;;;;;;;;4987776;28;20030;-73
2022/01/05 03:01:38;;;;;;;0.10;0.10;;;;;;;;;;4990693;28;20096;-73
2022/01/05 03:04:05;;;;;;;1.40;0.60;;;;;;;;;;4977195;28;20039;-73
2022/01/05 03:06:30;;;;;;;0.00;0.00;;;;;;;;;;4986155;28;20058;-73
2022/01/05 03:08:56;;;;;;;0.10;0.10;;;;;;;;;;4975733;28;20124;-73
2022/01/05 03:11:22;;;;;;;0.17;0.17;;;;;;;;;;4990506;28;20691;-73
2022/01/05 03:13:50;;;;;;;1.20;0.73;;;;;;;;;;4985006;28;20023;-74
2022/01/05 03:16:15;;;;;;;0.00;0.00;;;;;;;;;;4992004;28;20615;-74
2022/01/05 03:18:41;;;;;;;0.10;0.10;;;;;;;;;;5002260;28;20033;-73
2022/01/05 03:21:07;;;;;;;0.00;0.00;;;;;;;;;;4984665;28;20030;-73
2022/01/05 03:23:33;;;;;;;0.00;0.00;;;;;;;;;;5003424;28;20059;-71
2022/01/05 03:25:59;;;;;;;0.70;0.70;;;;;;;;;;4992558;28;20031;-73
2022/01/05 03:28:25;;;;;;;0.00;0.00;;;;;;;;;;4989053;28;20026;-73
2022/01/05 03:30:51;;;;;;;0.00;0.00;;;;;;;;;;4982450;28;20023;-73
2022/01/05 03:33:20;;;;;;;0.00;0.00;;;;;;;;;;4987685;28;20618;-73
2022/01/05 03:35:47;;;;;;;0.10;0.10;;;;;;;;;;4998648;28;20041;-73
2022/01/05 03:38:15;;;;;;;1.05;0.43;;;;;;;;;;5002488;28;20023;-73
2022/01/05 03:40:41;;;;;;;6.18;2.42;;;;;;;;;;4995144;28;20041;-73
2022/01/05 03:43:08;;;;;;;0.00;0.00;;;;;;;;;;4981223;28;20018;-73
2022/01/05 03:45:35;;;;;;;0.00;0.00;;;;;;;;;;5011307;28;20040;-73
2022/01/05 03:48:01;;;;;;;0.00;0.00;;;;;;;;;;4992084;28;20030;-73
2022/01/05 03:50:27;;;;;;;0.00;0.00;;;;;;;;;;4985649;28;20046;-73
2022/01/05 03:52:53;;;;;;;0.00;0.00;;;;;;;;;;4995150;28;20034;-73
2022/01/05 03:55:19;;;;;;;0.98;0.55;;;;;;;;;;4988316;28;20022;-73
2022/01/05 03:57:45;;;;;;;13.15;1.08;;;;;;;;;;5005390;28;20022;-73
2022/01/05 04:00:12;;;;;;;0.17;0.17;;;;;;;;;;4994946;28;20077;-73
2022/01/05 04:02:38;;;;;;;0.00;0.00;;;;;;;;;;4983184;28;20667;-73
2022/01/05 04:05:04;;;;;;;1.25;0.90;;;;;;;;;;4994513;28;20176;-73
2022/01/05 04:07:30;;;;;;;0.15;0.15;;;;;;;;;;4990575;28;20023;-73
2022/01/05 04:09:56;;;;;;;0.00;0.00;;;;;;;;;;5002099;28;20129;-70
2022/01/05 04:12:21;;;;;;;0.00;0.00;;;;;;;;;;4990410;28;20388;-73
2022/01/05 04:14:47;;;;;;;0.00;0.00;;;;;;;;;;4990639;28;20030;-73
2022/01/05 04:17:13;;;;;;;0.10;0.10;;;;;;;;;;4989232;28;20384;-73
2022/01/05 04:19:39;;;;;;;0.10;0.10;;;;;;;;;;5009925;28;20025;-73
2022/01/05 04:22:05;;;;;;;0.10;0.10;;;;;;;;;;4984749;28;20109;-74
2022/01/05 04:24:31;;;;;;;0.00;0.00;;;;;;;;;;4984092;28;20030;-71
2022/01/05 04:26:57;;;;;;;0.00;0.00;;;;;;;;;;4993838;28;20083;-73
2022/01/05 04:29:23;;;;;;;0.00;0.00;;;;;;;;;;4998566;28;20026;-73
2022/01/05 04:31:50;;;;;;;0.00;0.00;;;;;;;;;;4999841;28;20034;-73
2022/01/05 04:34:15;;;;;;;0.00;0.00;;;;;;;;;;4993891;28;20519;-73
2022/01/05 04:36:41;;;;;;;0.00;0.00;;;;;;;;;;5001440;28;20046;-73
2022/01/05 04:39:07;;;;;;;0.10;0.10;;;;;;;;;;4979926;28;20030;-73
2022/01/05 04:41:33;;;;;;;0.00;0.00;;;;;;;;;;4985561;28;20371;-74
2022/01/05 04:43:59;;;;;;;0.40;0.35;;;;;;;;;;5001139;28;20030;-73
2022/01/05 04:46:25;;;;;;;0.13;0.13;;;;;;;;;;5002043;28;20042;-71
2022/01/05 04:48:51;;;;;;;0.00;0.00;;;;;;;;;;4999210;28;20697;-72
2022/01/05 04:51:17;;;;;;;0.00;0.00;;;;;;;;;;4978442;28;20035;-74
2022/01/05 04:53:43;;;;;;;0.03;0.03;;;;;;;;;;4984753;28;20030;-73
2022/01/05 04:56:09;;;;;;;1.13;0.77;;;;;;;;;;4990182;28;20472;-73
2022/01/05 04:58:35;;;;;;;0.00;0.00;;;;;;;;;;5008281;28;20030;-73
2022/01/05 05:01:00;;;;;;;0.10;0.10;;;;;;;;;;4986430;28;20071;-73
2022/01/05 05:03:26;;;;;;;0.00;0.00;;;;;;;;;;4983580;28;20050;-74
2022/01/05 05:05:52;;;;;;;0.10;0.10;;;;;;;;;;4985728;28;20361;-73
2022/01/05 05:08:18;;;;;;;0.10;0.10;;;;;;;;;;4994445;28;20032;-73
2022/01/05 05:10:44;;;;;;;0.73;0.73;;;;;;;;;;4997932;28;20037;-72
2022/01/05 05:13:11;;;;;;;0.08;0.08;;;;;;;;;;4987082;28;20107;-73
2022/01/05 05:15:37;;;;;;;0.10;0.10;;;;;;;;;;4990018;28;20037;-72
2022/01/05 05:18:03;;;;;;;0.10;0.10;;;;;;;;;;4996913;28;20484;-73
2022/01/05 05:20:29;;;;;;;0.05;0.05;;;;;;;;;;4988719;28;20643;-72
2022/01/05 05:22:55;;;;;;;0.00;0.00;;;;;;;;;;5005413;28;20074;-73
2022/01/05 05:25:21;;;;;;;0.00;0.00;;;;;;;;;;4983413;28;20026;-73
2022/01/05 05:27:49;;;;;;;0.32;0.32;;;;;;;;;;4978314;28;20396;-73
2022/01/05 05:30:15;;;;;;;0.00;0.00;;;;;;;;;;4986690;28;20026;-72
2022/01/05 05:32:41;;;;;;;0.65;0.57;;;;;;;;;;4973086;28;20100;-72
2022/01/05 05:35:07;;;;;;;0.00;0.00;;;;;;;;;;4992294;28;20022;-72
2022/01/05 05:37:33;;;;;;;0.00;0.00;;;;;;;;;;4992343;28;20030;-73
2022/01/05 05:39:59;;;;;;;0.15;0.13;;;;;;;;;;5003101;28;20045;-73
2022/01/05 05:42:26;;;;;;;1.00;1.00;;;;;;;;;;4996551;28;20153;-72
2022/01/05 05:44:52;;;;;;;4.00;1.38;;;;;;;;;;4983973;28;20050;-72
2022/01/05 05:47:18;;;;;;;0.00;0.00;;;;;;;;;;4987345;28;20026;-73
2022/01/05 05:49:45;;;;;;;1.00;0.25;;;;;;;;;;4988696;28;20469;-73
2022/01/05 05:52:11;;;;;;;0.20;0.20;;;;;;;;;;4997161;28;20038;-72
2022/01/05 05:54:37;;;;;;;0.10;0.10;;;;;;;;;;4980166;28;20031;-72
2022/01/05 05:57:03;;;;;;;0.10;0.10;;;;;;;;;;5001402;28;20030;-73
2022/01/05 05:59:29;;;;;;;0.00;0.00;;;;;;;;;;4984238;28;20081;-73
2022/01/05 06:01:55;;;;;;;0.10;0.10;;;;;;;;;;4988140;28;20030;-71
2022/01/05 06:04:21;;;;;;;0.00;0.00;;;;;;;;;;4986748;28;20499;-71
2022/01/05 06:06:47;;;;;;;1.00;1.00;;;;;;;;;;4994476;28;20042;-71
2022/01/05 06:09:13;;;;;;;0.03;0.03;;;;;;;;;;5004237;28;20113;-71
2022/01/05 06:11:38;;;;;;;0.10;0.10;;;;;;;;;;4983857;28;20113;-71
2022/01/05 06:14:04;;;;;;;0.20;0.20;;;;;;;;;;4991507;28;20034;-75
2022/01/05 06:16:30;;;;;;;0.00;0.00;;;;;;;;;;4992751;28;20388;-71
2022/01/05 06:18:56;;;;;;;0.15;0.15;;;;;;;;;;5004696;28;20136;-71
2022/01/05 06:21:22;;;;;;;0.20;0.20;;;;;;;;;;4996219;28;20366;-72
2022/01/05 06:23:48;;;;;;;0.13;0.13;;;;;;;;;;4988941;28;20022;-72
2022/01/05 06:26:14;;;;;;;0.10;0.10;;;;;;;;;;4999687;28;20041;-71
2022/01/05 06:28:40;;;;;;;0.00;0.00;;;;;;;;;;4993648;28;20105;-74
2022/01/05 06:31:06;;;;;;;0.00;0.00;;;;;;;;;;4994209;28;20524;-70
2022/01/05 06:33:32;;;;;;;0.00;0.00;;;;;;;;;;4982854;28;20030;-69
2022/01/05 06:36:23;;;;;;;0.10;0.10;;;;;;;;;;4998880;28;20060;-70
2022/01/05 06:38:49;;;;;;;;;;;;;;;;;;4988874;28;20025;-70
2022/01/05 06:41:15;;;;;;;0.00;0.00;;;;;;;;;;4987934;28;19910;-70
2022/01/05 06:43:41;;;;;;;0.10;0.10;;;;;;;;;;4994415;28;20271;-70
2022/01/05 06:46:07;;;;;;;1.45;0.82;;;;;;;;;;4983644;28;20038;-70
2022/01/05 06:48:33;;;;;;;0.10;0.10;;;;;;;;;;4977198;28;20378;-70
2022/01/05 06:50:59;;;;;;;0.00;0.00;;;;;;;;;;4983134;28;20095;-70
2022/01/05 06:53:25;;;;;;;0.10;0.10;;;;;;;;;;5011467;28;20090;-70
2022/01/05 06:55:51;;;;;;;0.10;0.10;;;;;;;;;;4977635;28;20184;-70
2022/01/05 06:58:17;;;;;;;0.10;0.10;;;;;;;;;;4999895;28;20498;-70
2022/01/05 07:00:43;;;;;;;0.55;0.20;;;;;;;;;;4976114;28;20027;-68
2022/01/05 07:03:10;;;;;;;0.05;0.05;;;;;;;;;;4990680;28;20474;-68
2022/01/05 07:05:36;;;;;;;0.20;0.20;;;;;;;;;;5004281;28;20041;-68
2022/01/05 07:08:02;;;;;;;0.10;0.10;;;;;;;;;;4990939;28;20165;-68
2022/01/05 07:10:28;;;;;;;0.05;0.05;;;;;;;;;;4996915;28;20053;-68
2022/01/05 07:12:54;;;;;;;0.85;0.22;;;;;;;;;;4985026;28;20713;-69
2022/01/05 07:15:20;;;;;;;0.10;0.10;;;;;;;;;;5011322;28;20022;-68
2022/01/05 07:17:46;;;;;;;0.00;0.00;;;;;;;;;;4998600;28;20623;-68
2022/01/05 07:20:12;;;;;;;0.45;0.45;;;;;;;;;;4979285;28;20038;-68
2022/01/05 07:22:38;;;;;;;0.17;0.17;;;;;;;;;;5009801;28;20030;-68
2022/01/05 07:25:05;;;;;;;0.10;0.10;;;;;;;;;;5010912;28;20109;-68
2022/01/05 07:27:31;;;;;;;0.00;0.00;;;;;;;;;;5005034;28;20034;-68
2022/01/05 07:29:57;;;;;;;0.10;0.10;;;;;;;;;;4977671;28;20046;-68
2022/01/05 07:32:22;;;;;;;0.00;0.00;;;;;;;;;;4997204;28;20477;-68
2022/01/05 07:34:48;;;;;;;0.00;0.00;;;;;;;;;;4996478;28;20485;-68
2022/01/05 07:37:15;;;;;;;0.30;0.30;;;;;;;;;;4997439;28;20037;-68
2022/01/05 07:39:41;;;;;;;0.80;0.80;;;;;;;;;;4987879;28;20026;-68
2022/01/05 07:42:08;;;;;;;0.10;0.10;;;;;;;;;;4997184;28;20032;-68
2022/01/05 07:44:34;;;;;;;0.57;0.57;;;;;;;;;;5010265;28;20089;-68
2022/01/05 07:47:00;;;;;;;0.00;0.00;;;;;;;;;;4978295;28;20033;-68
2022/01/05 07:49:25;;;;;;;0.08;0.08;;;;;;;;;;4981466;28;20702;-68
2022/01/05 07:51:51;;;;;;;0.00;0.00;;;;;;;;;;4993076;28;20042;-68
2022/01/05 07:54:17;;;;;;;0.00;0.00;;;;;;;;;;4996201;28;20074;-68
2022/01/05 07:56:43;;;;;;;0.10;0.10;;;;;;;;;;4988336;28;20034;-68
2022/01/05 07:59:09;;;;;;;0.00;0.00;;;;;;;;;;5002898;28;20049;-67
2022/01/05 08:01:35;;;;;;;0.10;0.10;;;;;;;;;;4984766;28;20088;-68
2022/01/05 08:04:01;;;;;;;17.17;2.72;;;;;;;;;;4991456;28;20441;-68
2022/01/05 08:06:27;;;;;;;0.52;0.52;;;;;;;;;;4981722;28;20037;-68
2022/01/05 08:08:53;;;;;;;0.10;0.10;;;;;;;;;;4990230;28;20054;-68
2022/01/05 08:11:19;;;;;;;0.20;0.20;;;;;;;;;;4985796;28;20081;-68
2022/01/05 08:13:45;;;;;;;0.10;0.10;;;;;;;;;;4994819;28;20027;-67
2022/01/05 08:16:11;;;;;;;3.63;1.27;;;;;;;;;;4987606;28;20026;-68
2022/01/05 08:18:37;;;;;;;0.10;0.10;;;;;;;;;;4996363;28;20121;-68
2022/01/05 08:21:03;;;;;;;0.10;0.10;;;;;;;;;;4991221;28;20358;-68
2022/01/05 08:23:29;;;;;;;0.03;0.03;;;;;;;;;;4978408;28;20023;-68
2022/01/05 08:25:55;;;;;;;0.45;0.45;;;;;;;;;;4985526;28;20034;-68
2022/01/05 08:28:21;;;;;;;0.10;0.10;;;;;;;;;;4981136;28;20037;-68
2022/01/05 08:30:48;;;;;;;0.52;0.52;;;;;;;;;;4995722;28;20030;-69
2022/01/05 08:33:18;;;;;;;0.10;0.10;;;;;;;;;;5004503;28;20085;-68
2022/01/05 08:35:45;;;;;;;1.83;0.20;;;;;;;;;;4979765;28;20057;-66
2022/01/05 08:38:12;;;;;;;0.10;0.10;;;;;;;;;;4983330;28;20030;-68
2022/01/05 08:40:38;;;;;;;0.10;0.10;;;;;;;;;;4989684;28;20128;-68
2022/01/05 08:43:05;;;;;;;0.95;0.95;;;;;;;;;;4979299;28;20508;-69
2022/01/05 08:45:31;;;;;;;0.08;0.08;;;;;;;;;;4977905;28;20076;-69
2022/01/05 08:47:59;;;;;;;0.00;0.00;;;;;;;;;;4985305;28;20518;-69
2022/01/05 08:50:26;;;;;;;0.20;0.20;;;;;;;;;;4979988;28;20528;-70
2022/01/05 08:52:53;;;;;;;0.17;0.17;;;;;;;;;;4996906;28;20042;-69
2022/01/05 08:55:20;;;;;;;0.10;0.10;;;;;;;;;;4988250;28;20027;-71
2022/01/05 08:57:47;;;;;;;0.20;0.20;;;;;;;;;;5000207;28;20064;-70
2022/01/05 09:00:13;;;;;;;0.30;0.30;;;;;;;;;;4985332;28;20061;-71
2022/01/05 09:02:39;;;;;;;0.10;0.10;;;;;;;;;;4979133;28;20034;-70
2022/01/05 09:05:05;;;;;;;0.00;0.00;;;;;;;;;;4986412;28;20511;-70
2022/01/05 09:07:31;;;;;;;0.00;0.00;;;;;;;;;;4982248;28;20041;-70
2022/01/05 09:09:57;;;;;;;0.20;0.20;;;;;;;;;;4976761;28;20096;-70
2022/01/05 09:12:23;;;;;;;1.02;0.90;;;;;;;;;;4976231;28;20038;-70
2022/01/05 09:14:49;;;;;;;0.22;0.22;;;;;;;;;;4993124;28;20033;-69
2022/01/05 09:17:15;;;;;;;0.00;0.00;;;;;;;;;;4974992;28;20037;-70
2022/01/05 09:19:42;;;;;;;0.00;0.00;;;;;;;;;;4983830;28;20027;-69
2022/01/05 09:22:09;;;;;;;0.00;0.00;;;;;;;;;;4983573;28;20027;-70
2022/01/05 09:24:36;;;;;;;0.25;0.25;;;;;;;;;;4991631;28;20446;-71
2022/01/05 09:27:04;;;;;;;0.10;0.10;;;;;;;;;;4981597;28;20151;-71
2022/01/05 09:29:30;;;;;;;0.00;0.00;;;;;;;;;;4986500;28;20113;-71
2022/01/05 09:31:57;;;;;;;0.03;0.03;;;;;;;;;;4978284;28;20045;-71
2022/01/05 09:34:23;;;;;;;0.00;0.00;;;;;;;;;;4990175;28;20045;-71
2022/01/05 09:36:57;;;;;;;0.00;0.00;;;;;;;;;;4987303;28;21317;-71
2022/01/05 09:42:07;;;;;;;14.65;0.68;;;;;;;;;;4986012;28;20053;-71
2022/01/05 09:44:34;;;;;;;4.28;0.80;;;;;;;;;;4984014;28;20041;-71
2022/01/05 09:47:09;;;;;;;0.00;0.00;;;;;;;;;;4989698;28;20033;-71
2022/01/05 09:49:52;;;;;;;1.55;0.85;;;;;;;;;;4990314;28;20026;-71
2022/01/05 09:52:18;;;;;;;0.20;0.20;;;;;;;;;;4981395;28;20477;-71
2022/01/05 09:54:44;;;;;;;0.10;0.10;;;;;;;;;;4987375;28;20085;-73
2022/01/05 09:57:11;;;;;;;0.00;0.00;;;;;;;;;;4975483;28;20027;-72
2022/01/05 09:59:38;;;;;;;0.10;0.10;;;;;;;;;;4985640;28;20062;-72
2022/01/05 10:02:05;;;;;;;1.38;1.27;;;;;;;;;;4992450;28;20031;-72
2022/01/05 10:04:31;;;;;;;0.10;0.10;;;;;;;;;;4988920;28;20480;-72
2022/01/05 10:06:57;;;;;;;3.25;1.95;;;;;;;;;;4986635;28;20042;-71
2022/01/05 10:09:23;;;;;;;6.18;1.42;;;;;;;;;;4979909;28;20030;-69
2022/01/05 10:11:49;;;;;;;0.20;0.20;;;;;;;;;;4983873;28;20156;-69
2022/01/05 10:14:16;;;;;;;3.53;3.13;;;;;;;;;;4987000;28;20148;-71
2022/01/05 10:16:43;;;;;;;1.55;0.95;;;;;;;;;;4975924;28;20022;-72
2022/01/05 10:19:19;;;;;;;0.75;0.75;;;;;;;;;;4976512;28;20031;-71
2022/01/05 10:21:46;;;;;;;0.00;0.00;;;;;;;;;;4975657;28;20030;-71
2022/01/05 10:24:12;;;;;;;0.35;0.35;;;;;;;;;;4980855;28;20066;-71
2022/01/05 10:26:39;;;;;;;0.10;0.10;;;;;;;;;;4972916;28;20054;-71
2022/01/05 10:29:06;;;;;;;0.10;0.10;;;;;;;;;;4978411;28;20045;-71
2022/01/05 10:31:36;;;;;;;0.00;0.00;;;;;;;;;;4976997;28;20629;-72
2022/01/05 10:34:14;;;;;;;1.67;0.40;;;;;;;;;;4965457;28;20034;-71
2022/01/05 10:36:54;;;;;;;0.20;0.20;;;;;;;;;;4976584;28;20035;-71
2022/01/05 10:39:28;;;;;;;0.10;0.10;;;;;;;;;;4984413;28;20026;-70
2022/01/05 10:41:54;;;;;;;2.00;0.60;;;;;;;;;;4982929;28;20050;-71
2022/01/05 10:44:22;;;;;;;0.55;0.55;;;;;;;;;;4982004;28;20057;-70
2022/01/05 10:46:52;;;;;;;0.10;0.10;;;;;;;;;;4977736;28;20030;-71
2022/01/05 10:49:31;;;;;;;0.10;0.10;;;;;;;;;;4984271;28;20037;-71
2022/01/05 10:51:58;;;;;;;0.20;0.20;;;;;;;;;;4978148;28;20035;-70
2022/01/05 10:54:27;;;;;;;0.73;0.73;;;;;;;;;;4980656;28;20118;-71
2022/01/05 10:56:53;;;;;;;0.10;0.10;;;;;;;;;;4985430;28;20738;-71
2022/01/05 10:59:28;;;;;;;0.00;0.00;;;;;;;;;;4985251;28;20033;-71
2022/01/05 11:01:54;;;;;;;0.20;0.20;;;;;;;;;;4982756;28;20033;-70
2022/01/05 11:04:21;;;;;;;1.52;1.20;;;;;;;;;;4979226;28;20037;-71
2022/01/05 11:06:55;;;;;;;0.10;0.10;;;;;;;;;;4977341;28;20023;-71
2022/01/05 11:09:21;;;;;;;0.52;0.52;;;;;;;;;;4997089;28;20038;-70
2022/01/05 11:11:49;;;;;;;0.13;0.13;;;;;;;;;;4985945;28;20035;-70
2022/01/05 11:14:16;;;;;;;1.70;1.20;;;;;;;;;;4993655;28;20063;-70
2022/01/05 11:16:44;;;;;;;0.52;0.52;;;;;;;;;;4976231;28;20413;-71
2022/01/05 11:19:20;;;;;;;0.08;0.08;;;;;;;;;;4982140;28;20037;-71
2022/01/05 11:21:56;;;;;;;0.10;0.10;;;;;;;;;;4975939;28;20030;-71
2022/01/05 11:24:22;;;;;;;1.20;1.20;;;;;;;;;;4978388;28;20480;-70
2022/01/05 11:26:48;;;;;;;0.10;0.10;;;;;;;;;;4974953;28;20030;-70
2022/01/05 11:29:14;;;;;;;2.20;0.65;;;;;;;;;;4977530;28;20092;-70
2022/01/05 11:31:41;;;;;;;0.13;0.13;;;;;;;;;;4987287;28;20034;-72
2022/01/05 11:34:07;;;;;;;0.20;0.20;;;;;;;;;;4979292;28;20022;-71
2022/01/05 11:36:33;;;;;;;0.00;0.00;;;;;;;;;;4981229;28;20416;-71
2022/01/05 11:38:59;;;;;;;0.22;0.22;;;;;;;;;;4982418;28;20023;-71
2022/01/05 11:41:25;;;;;;;0.45;0.45;;;;;;;;;;4981460;28;20031;-71
2022/01/05 11:43:51;;;;;;;0.20;0.20;;;;;;;;;;4979874;28;20038;-71
2022/01/05 11:46:20;;;;;;;0.00;0.00;;;;;;;;;;4970707;28;20377;-71
2022/01/05 11:48:58;;;;;;;0.00;0.00;;;;;;;;;;4983348;28;20121;-71
2022/01/05 11:51:29;;;;;;;18.73;1.77;;;;;;;;;;4980966;28;20034;-71
2022/01/05 11:54:12;;;;;;;0.05;0.05;;;;;;;;;;4975930;28;20470;-71
2022/01/05 11:56:42;;;;;;;0.00;0.00;;;;;;;;;;4993806;28;20041;-72
2022/01/05 11:59:19;;;;;;;0.20;0.20;;;;;;;;;;5002945;28;20014;-71
2022/01/05 12:01:57;;;;;;;0.00;0.00;;;;;;;;;;4982157;28;20030;-71
2022/01/05 12:04:23;;;;;;;0.10;0.10;;;;;;;;;;4986718;28;20054;-72
2022/01/05 12:06:49;;;;;;;0.10;0.10;;;;;;;;;;4989788;28;20515;-71
2022/01/05 12:09:20;;;;;;;0.05;0.05;;;;;;;;;;4984885;28;20181;-72
2022/01/05 12:11:45;;;;;;;0.10;0.10;;;;;;;;;;4979035;28;20042;-72
2022/01/05 12:14:20;;;;;;;1.08;0.98;;;;;;;;;;4991975;28;20045;-71
2022/01/05 12:17:02;;;;;;;0.13;0.13;;;;;;;;;;4986643;28;20038;-71
2022/01/05 12:19:27;;;;;;;0.10;0.10;;;;;;;;;;4978886;28;20027;-73
2022/01/05 12:21:55;;;;;;;0.13;0.13;;;;;;;;;;4980715;28;20105;-72
2022/01/05 12:24:21;;;;;;;0.10;0.10;;;;;;;;;;4986468;28;20456;-72
2022/01/05 12:27:06;;;;;;;0.10;0.10;;;;;;;;;;4979337;28;20049;-72
2022/01/05 12:29:32;;;;;;;10.45;1.55;;;;;;;;;;4985848;28;20034;-72
2022/01/05 12:31:59;;;;;;;0.70;0.63;;;;;;;;;;4987004;28;20026;-72
2022/01/05 12:34:44;;;;;;;27.10;0.90;;;;;;;;;;4989025;28;20110;-72
2022/01/05 12:37:28;;;;;;;0.22;0.22;;;;;;;;;;4986578;28;20085;-73
2022/01/05 12:39:57;;;;;;;0.55;0.55;;;;;;;;;;4995811;28;20666;-72
2022/01/05 12:42:23;;;;;;;0.03;0.03;;;;;;;;;;4976399;28;20377;-72
2022/01/05 12:44:49;;;;;;;5.95;1.30;;;;;;;;;;4979252;28;20523;-72
2022/01/05 12:47:16;;;;;;;0.13;0.13;;;;;;;;;;4982182;28;20027;-72
2022/01/05 12:49:42;;;;;;;0.00;0.00;;;;;;;;;;4985971;28;20105;-74
2022/01/05 12:52:10;;;;;;;0.43;0.35;;;;;;;;;;4982044;28;20037;-72
2022/01/05 12:54:43;;;;;;;0.00;0.00;;;;;;;;;;4988165;28;20519;-72
2022/01/05 12:57:11;;;;;;;0.28;0.28;;;;;;;;;;4986354;28;20503;-73
2022/01/05 12:59:40;;;;;;;0.13;0.13;;;;;;;;;;4989795;28;20042;-73
2022/01/05 13:02:08;;;;;;;0.90;0.80;;;;;;;;;;4988386;28;20441;-72
2022/01/05 13:04:35;;;;;;;0.10;0.10;;;;;;;;;;4986960;28;20026;-72
2022/01/05 13:07:03;;;;;;;0.00;0.00;;;;;;;;;;4980217;28;20469;-72
2022/01/05 13:09:37;;;;;;;0.25;0.25;;;;;;;;;;4983575;28;20065;-72
2022/01/05 13:12:08;;;;;;;5.65;0.57;;;;;;;;;;4987040;28;20088;-72
2022/01/05 13:14:34;;;;;;;0.10;0.10;;;;;;;;;;4985164;28;20043;-72
2022/01/05 13:17:11;;;;;;;0.13;0.13;;;;;;;;;;4985235;28;20095;-72
2022/01/05 13:19:42;;;;;;;0.05;0.05;;;;;;;;;;4986948;28;20100;-72
2022/01/05 13:22:12;;;;;;;0.35;0.35;;;;;;;;;;4988483;28;20033;-72
2022/01/05 13:24:43;;;;;;;0.00;0.00;;;;;;;;;;4982001;28;20031;-72
2022/01/05 13:27:09;;;;;;;0.93;0.37;;;;;;;;;;4983838;28;20077;-72
2022/01/05 13:29:36;;;;;;;0.85;0.85;;;;;;;;;;4984301;28;20110;-72
2022/01/05 13:32:04;;;;;;;0.00;0.00;;;;;;;;;;4982359;28;20504;-72
2022/01/05 13:34:30;;;;;;;0.05;0.05;;;;;;;;;;4982975;28;20031;-72
2022/01/05 13:36:56;;;;;;;0.00;0.00;;;;;;;;;;4981767;28;20038;-72
2022/01/05 13:39:34;;;;;;;0.10;0.10;;;;;;;;;;4981717;28;20462;-72
2022/01/05 13:42:00;;;;;;;0.82;0.82;;;;;;;;;;4986110;28;20030;-73
2022/01/05 13:44:26;;;;;;;0.10;0.10;;;;;;;;;;4985209;28;20512;-72
2022/01/05 13:46:58;;;;;;;0.00;0.00;;;;;;;;;;4991641;28;20137;-72
2022/01/05 13:49:30;;;;;;;12.40;0.85;;;;;;;;;;4990926;28;20043;-72
2022/01/05 13:52:11;;;;;;;0.10;0.10;;;;;;;;;;4988562;28;20140;-72
2022/01/05 13:54:39;;;;;;;0.10;0.10;;;;;;;;;;4996387;28;20044;-72
2022/01/05 13:57:05;;;;;;;0.30;0.30;;;;;;;;;;4993630;28;20510;-72
2022/01/05 13:59:43;;;;;;;0.00;0.00;;;;;;;;;;4990214;28;20481;-72
2022/01/05 14:02:09;;;;;;;0.10;0.10;;;;;;;;;;4987837;28;20037;-72
2022/01/05 14:04:49;;;;;;;0.28;0.28;;;;;;;;;;4981708;28;20093;-71
2022/01/05 14:07:17;;;;;;;0.30;0.30;;;;;;;;;;4988384;28;20035;-72
2022/01/05 14:09:46;;;;;;;0.65;0.65;;;;;;;;;;4985184;28;20030;-71
2022/01/05 14:12:28;;;;;;;0.00;0.00;;;;;;;;;;4972870;28;20316;-71
2022/01/05 14:15:01;;;;;;;4.55;1.25;;;;;;;;;;4981859;28;20045;-72
2022/01/05 14:17:31;;;;;;;0.00;0.00;;;;;;;;;;4989478;28;20037;-72
2022/01/05 14:20:13;;;;;;;0.17;0.17;;;;;;;;;;4983525;28;20549;-74
2022/01/05 14:22:40;;;;;;;2.65;1.17;;;;;;;;;;4988094;28;20270;-74
2022/01/05 14:25:06;;;;;;;0.00;0.00;;;;;;;;;;4983815;28;20025;-74
2022/01/05 14:27:36;;;;;;;0.10;0.10;;;;;;;;;;4984807;28;20027;-74
2022/01/05 14:30:06;;;;;;;0.05;0.05;;;;;;;;;;4988108;28;20117;-73
2022/01/05 14:32:33;;;;;;;2.85;1.20;;;;;;;;;;4992263;28;20035;-73
2022/01/05 14:35:00;;;;;;;0.13;0.13;;;;;;;;;;4988176;28;20029;-73
2022/01/05 14:37:26;;;;;;;13.25;0.60;;;;;;;;;;4988995;28;20238;-74
2022/01/05 14:39:54;;;;;;;0.20;0.20;;;;;;;;;;4989216;28;20062;-74
2022/01/05 14:42:20;;;;;;;0.00;0.00;;;;;;;;;;4987936;28;20038;-73
2022/01/05 14:44:47;;;;;;;0.10;0.10;;;;;;;;;;4991519;28;20101;-73
2022/01/05 14:47:21;;;;;;;0.10;0.10;;;;;;;;;;4985567;28;20040;-73